Time;durP1;ratioP1;P1;durP2;ratioP2;P2;SDS_P1;SDS_P2;PMS_P1;PMS_P2;Temp;Humidity;BMP_temperature;BMP_pressure;BME280_temperature;BME280_humidity;BME280_pressure;Samples;Min_cycle;Max_cycle;Signal;HPM_P1;HPM_P2
2021/06/02 00:02:10;;;;;;;1.30;0.80;;;13.20;81.50;;;;;;5032849;28;20025;-52
2021/06/02 00:04:45;;;;;;;1.27;1.05;;;13.10;82.50;;;;;;5031876;28;20030;-52
2021/06/02 00:07:15;;;;;;;2.72;0.95;;;13.10;84.60;;;;;;5032918;28;20029;-46
2021/06/02 00:09:40;;;;;;;1.90;1.08;;;13.00;83.30;;;;;;5032689;28;20396;-47
2021/06/02 00:12:10;;;;;;;2.00;1.17;;;13.00;83.80;;;;;;5032800;28;20025;-46
2021/06/02 00:14:36;;;;;;;2.88;1.30;;;13.00;84.60;;;;;;5032730;28;20105;-48
2021/06/02 00:17:02;;;;;;;1.92;0.93;;;12.90;85.00;;;;;;5032794;28;20112;-46
2021/06/02 00:19:28;;;;;;;1.23;1.13;;;12.90;86.60;;;;;;5031639;28;20048;-47
2021/06/02 00:21:56;;;;;;;1.17;0.80;;;12.80;86.50;;;;;;5032466;28;20036;-51
2021/06/02 00:24:22;;;;;;;1.17;1.05;;;12.70;86.70;;;;;;5032528;28;20029;-48
2021/06/02 00:26:56;;;;;;;1.95;1.35;;;12.70;87.40;;;;;;5032522;28;20026;-47
2021/06/02 00:29:26;;;;;;;1.15;0.98;;;12.70;88.60;;;;;;5032522;28;20057;-46
2021/06/02 00:31:52;;;;;;;1.02;0.80;;;12.60;88.40;;;;;;5031098;28;20384;-52
2021/06/02 00:34:19;;;;;;;3.92;0.98;;;12.60;90.00;;;;;;5031645;28;20033;-46
2021/06/02 00:36:46;;;;;;;2.70;1.00;;;12.60;90.00;;;;;;5032615;28;20029;-49
2021/06/02 00:39:12;;;;;;;3.53;1.20;;;12.60;90.60;;;;;;5032500;28;20022;-44
2021/06/02 00:41:39;;;;;;;2.40;1.30;;;12.50;91.50;;;;;;5032462;28;20136;-48
2021/06/02 00:44:07;;;;;;;3.50;1.10;;;12.50;90.90;;;;;;5032369;28;20030;-46
2021/06/02 00:46:36;;;;;;;1.08;0.98;;;12.50;91.40;;;;;;5032245;28;20032;-48
2021/06/02 00:49:02;;;;;;;3.30;1.33;;;12.40;92.10;;;;;;5031451;28;20034;-50
2021/06/02 00:51:28;;;;;;;3.53;1.40;;;12.40;92.40;;;;;;5032506;28;20267;-46
2021/06/02 00:53:55;;;;;;;3.03;1.20;;;12.30;92.80;;;;;;5032315;28;20030;-50
2021/06/02 00:56:30;;;;;;;1.98;1.17;;;12.30;93.70;;;;;;5032463;28;20026;-49
2021/06/02 00:58:59;;;;;;;2.33;1.30;;;12.20;94.60;;;;;;5032049;28;20488;-46
2021/06/02 01:01:26;;;;;;;2.65;1.25;;;12.20;95.20;;;;;;5032284;28;20030;-45
2021/06/02 01:03:55;;;;;;;1.65;1.33;;;12.20;95.70;;;;;;5031211;28;20484;-51
2021/06/02 01:06:21;;;;;;;2.75;1.30;;;12.10;95.40;;;;;;5032330;28;20117;-49
2021/06/02 01:08:47;;;;;;;1.70;1.23;;;12.20;96.10;;;;;;5032309;28;20113;-50
2021/06/02 01:11:15;;;;;;;1.40;1.20;;;12.20;98.10;;;;;;5032238;28;20032;-47
2021/06/02 01:13:42;;;;;;;2.20;1.60;;;12.10;98.00;;;;;;5032004;28;20021;-48
2021/06/02 01:16:08;;;;;;;2.65;1.60;;;12.10;99.10;;;;;;5032190;28;20028;-46
2021/06/02 01:18:35;;;;;;;2.72;1.90;;;12.10;99.50;;;;;;5032034;28;20116;-53
2021/06/02 01:21:02;;;;;;;3.30;1.70;;;12.10;99.90;;;;;;5031078;28;20022;-49
2021/06/02 01:23:28;;;;;;;1.83;1.40;;;12.10;99.90;;;;;;5035648;28;20056;-51
2021/06/02 01:25:54;;;;;;;3.85;1.83;;;12.00;99.90;;;;;;5035761;28;20113;-45
2021/06/02 01:28:20;;;;;;;4.72;1.85;;;12.00;99.90;;;;;;5035793;28;20083;-50
2021/06/02 01:30:45;;;;;;;3.00;1.25;;;12.00;99.90;;;;;;5035772;28;20033;-47
2021/06/02 01:33:47;;;;;;;3.88;1.42;;;11.90;99.90;;;;;;5035598;28;20037;-47
2021/06/02 01:36:14;;;;;;;2.63;1.17;;;11.90;99.90;;;;;;5035519;28;20510;-47
2021/06/02 01:38:58;;;;;;;3.83;1.35;;;11.90;99.90;;;;;;5035670;28;20105;-46
2021/06/02 01:41:32;;;;;;;2.80;1.52;;;11.90;99.90;;;;;;5034342;28;20030;-45
2021/06/02 01:44:45;;;;;;;5.03;1.80;;;11.90;99.90;;;;;;5035206;28;20484;-44
2021/06/02 01:47:20;;;;;;;2.30;1.50;;;11.80;99.90;;;;;;5035427;28;20055;-46
2021/06/02 01:50:20;;;;;;;4.35;1.58;;;11.80;99.90;;;;;;5034223;28;20032;-52
2021/06/02 01:53:04;;;;;;;3.72;1.42;;;11.80;99.90;;;;;;5035454;28;20441;-49
2021/06/02 01:55:48;;;;;;;4.72;1.75;;;11.90;99.90;;;;;;5035113;28;20480;-46
2021/06/02 01:58:50;;;;;;;3.05;1.67;;;11.90;99.90;;;;;;5035109;28;20053;-46
2021/06/02 02:01:16;;;;;;;4.50;1.92;;;11.90;99.90;;;;;;5035066;28;20041;-49
2021/06/02 02:04:00;;;;;;;6.40;2.25;;;11.90;99.90;;;;;;5034801;28;20110;-48
2021/06/02 02:07:07;;;;;;;3.00;2.25;;;11.90;99.90;;;;;;5033939;28;20066;-47
2021/06/02 02:10:10;;;;;;;4.30;2.42;;;11.90;99.90;;;;;;5035134;28;20519;-45
2021/06/02 02:12:35;;;;;;;2.97;2.22;;;11.80;99.90;;;;;;5035234;28;20473;-51
2021/06/02 02:15:29;;;;;;;5.57;2.58;;;11.80;99.90;;;;;;5033556;28;20036;-46
2021/06/02 02:18:16;;;;;;;3.60;2.40;;;11.80;99.90;;;;;;5034997;28;20029;-51
2021/06/02 02:21:09;;;;;;;5.22;2.63;;;11.80;99.90;;;;;;5033904;28;20029;-45
2021/06/02 02:24:12;;;;;;;7.43;3.05;;;11.80;99.90;;;;;;5034663;28;20385;-44
2021/06/02 02:26:46;;;;;;;3.60;2.53;;;11.80;99.90;;;;;;5034781;28;20041;-45
2021/06/02 02:29:42;;;;;;;4.93;2.30;;;11.70;99.90;;;;;;5034761;28;20021;-51
2021/06/02 02:32:31;;;;;;;4.22;2.30;;;11.70;99.90;;;;;;5034769;28;20047;-46
2021/06/02 02:35:02;;;;;;;6.30;2.88;;;11.70;99.90;;;;;;5032396;28;20053;-47
2021/06/02 02:37:34;;;;;;;6.75;3.13;;;11.70;99.90;;;;;;5034555;28;20436;-49
2021/06/02 02:40:17;;;;;;;3.40;2.60;;;11.60;99.90;;;;;;5034598;28;20024;-48
2021/06/02 02:43:13;;;;;;;4.43;2.90;;;11.70;99.90;;;;;;5034539;28;20362;-46
2021/06/02 02:46:15;;;;;;;8.15;2.85;;;11.60;99.90;;;;;;5034009;28;20034;-46
2021/06/02 02:49:13;;;;;;;7.88;3.00;;;11.50;99.90;;;;;;5034268;28;20538;-48
2021/06/02 02:52:17;;;;;;;6.03;2.75;;;11.60;99.90;;;;;;5033698;28;20041;-46
2021/06/02 02:55:20;;;;;;;6.13;3.33;;;11.50;99.90;;;;;;5033939;28;20041;-44
2021/06/02 02:58:02;;;;;;;6.03;3.42;;;11.50;99.90;;;;;;5015382;28;20033;-49
2021/06/02 03:00:38;;;;;;;8.43;3.90;;;11.50;99.90;;;;;;5033645;28;20060;-46
2021/06/02 03:03:07;;;;;;;;;;;11.40;99.90;;;;;;5033249;28;20055;-47
2021/06/02 03:05:39;;;;;;;5.68;3.00;;;11.40;99.90;;;;;;5032856;28;19959;-45
2021/06/02 03:08:07;;;;;;;6.05;3.60;;;11.40;99.90;;;;;;5034094;28;20476;-46
2021/06/02 03:10:36;;;;;;;5.28;3.47;;;11.40;99.90;;;;;;5033710;28;20025;-44
2021/06/02 03:13:24;;;;;;;7.53;3.70;;;11.30;99.90;;;;;;5033973;28;20068;-47
2021/06/02 03:15:58;;;;;;;5.38;2.92;;;11.30;99.90;;;;;;5033809;28;20017;-47
2021/06/02 03:18:43;;;;;;;5.35;3.08;;;11.40;99.90;;;;;;5033759;28;20021;-46
2021/06/02 03:21:33;;;;;;;5.53;3.13;;;11.40;99.90;;;;;;5033090;28;20041;-44
2021/06/02 03:24:10;;;;;;;6.40;3.17;;;11.40;99.90;;;;;;5033688;28;20380;-47
2021/06/02 03:26:40;;;;;;;6.45;2.92;;;11.50;99.90;;;;;;5033566;28;20033;-49
2021/06/02 03:29:14;;;;;;;5.47;3.28;;;11.50;99.90;;;;;;5033652;28;20057;-47
2021/06/02 03:32:06;;;;;;;6.40;3.38;;;11.50;99.90;;;;;;5033200;28;20025;-48
2021/06/02 03:34:50;;;;;;;6.47;3.70;;;11.50;99.90;;;;;;5032391;28;20064;-45
2021/06/02 03:37:52;;;;;;;5.07;3.08;;;11.50;99.90;;;;;;5013780;28;20052;-48
2021/06/02 03:40:40;;;;;;;8.75;3.85;;;11.50;99.90;;;;;;5013573;28;20026;-46
2021/06/02 03:43:25;;;;;;;6.95;4.28;;;11.50;99.90;;;;;;5013371;28;20030;-46
2021/06/02 03:46:17;;;;;;;6.38;4.32;;;11.50;99.90;;;;;;5012937;28;20022;-46
2021/06/02 03:49:19;;;;;;;8.50;3.63;;;11.50;99.90;;;;;;5009843;28;20034;-49
2021/06/02 03:51:53;;;;;;;7.78;3.50;;;11.50;99.90;;;;;;5013327;28;20508;-46
2021/06/02 03:54:29;;;;;;;8.00;4.43;;;11.50;99.90;;;;;;5013217;28;20033;-48
2021/06/02 03:57:13;;;;;;;4.82;3.15;;;11.60;99.90;;;;;;5013317;28;20076;-47
2021/06/02 03:59:59;;;;;;;9.18;5.45;;;11.60;99.90;;;;;;5013187;28;20050;-44
2021/06/02 04:02:47;;;;;;;11.15;5.03;;;11.60;99.90;;;;;;5013029;28;20044;-47
2021/06/02 04:05:37;;;;;;;7.75;5.03;;;11.60;99.90;;;;;;5012205;28;20359;-46
2021/06/02 04:08:18;;;;;;;8.35;4.32;;;11.60;99.90;;;;;;5013293;28;20037;-47
2021/06/02 04:10:55;;;;;;;8.50;5.00;;;11.60;99.90;;;;;;5013160;28;20026;-48
2021/06/02 04:13:59;;;;;;;7.80;4.18;;;11.70;99.90;;;;;;5013086;28;20021;-46
2021/06/02 04:16:37;;;;;;;10.23;4.68;;;11.70;99.90;;;;;;5013003;28;20061;-48
2021/06/02 04:19:13;;;;;;;11.60;4.45;;;11.70;99.90;;;;;;5012266;28;20431;-50
2021/06/02 04:21:44;;;;;;;8.20;4.55;;;11.70;99.90;;;;;;5012853;28;20496;-48
2021/06/02 04:24:14;;;;;;;8.38;4.55;;;11.70;99.90;;;;;;5043340;28;20387;-45
2021/06/02 04:26:41;;;;;;;6.97;4.10;;;11.80;99.90;;;;;;5052804;28;20464;-47
2021/06/02 04:29:09;;;;;;;9.95;4.72;;;11.90;99.90;;;;;;5051239;28;20021;-46
2021/06/02 04:31:35;;;;;;;8.43;4.85;;;12.00;99.90;;;;;;5052370;28;20068;-48
2021/06/02 04:34:01;;;;;;;7.70;3.60;;;12.10;99.90;;;;;;5051717;28;20051;-47
2021/06/02 04:36:28;;;;;;;8.20;4.03;;;12.20;99.90;;;;;;5038660;28;20029;-48
2021/06/02 04:38:56;;;;;;;8.70;4.85;;;12.30;99.90;;;;;;5032703;28;20033;-50
2021/06/02 04:41:27;;;;;;;6.72;3.72;;;12.40;99.90;;;;;;5030228;28;20029;-49
2021/06/02 04:43:59;;;;;;;7.93;5.03;;;12.50;99.90;;;;;;5032523;28;20109;-47
2021/06/02 04:46:24;;;;;;;7.90;4.68;;;12.60;99.90;;;;;;5032160;28;20374;-47
2021/06/02 04:48:51;;;;;;;17.25;5.80;;;12.70;99.90;;;;;;5028148;28;20026;-51
2021/06/02 04:52:00;;;;;;;7.75;5.00;;;12.70;99.90;;;;;;5031500;28;20044;-45
2021/06/02 04:54:50;;;;;;;6.07;4.10;;;12.60;99.90;;;;;;5032036;28;20036;-50
2021/06/02 04:57:47;;;;;;;6.97;4.43;;;12.70;99.90;;;;;;5033873;28;20378;-46
2021/06/02 05:00:36;;;;;;;6.97;4.93;;;12.80;99.90;;;;;;5036343;28;20049;-50
2021/06/02 05:03:51;;;;;;;8.98;5.32;;;12.90;99.90;;;;;;5036021;28;20033;-46
2021/06/02 05:06:57;;;;;;;10.32;4.80;;;13.00;99.90;;;;;;5035808;28;20064;-46
2021/06/02 05:10:00;;;;;;;6.50;4.75;;;13.10;99.90;;;;;;5033389;28;20009;-47
2021/06/02 05:13:01;;;;;;;12.25;6.18;;;13.20;99.90;;;;;;5035899;28;20029;-46
2021/06/02 05:15:54;;;;;;;5.78;4.45;;;13.40;99.90;;;;;;5035958;28;20075;-46
2021/06/02 05:19:03;;;;;;;9.80;4.72;;;13.60;99.90;;;;;;5035959;28;20021;-46
2021/06/02 05:22:05;;;;;;;9.32;5.70;;;13.90;99.90;;;;;;5035656;28;20465;-46
2021/06/02 05:24:49;;;;;;;9.82;5.40;;;14.10;99.90;;;;;;5053953;28;20159;-46
2021/06/02 05:27:42;;;;;;;8.43;5.50;;;14.40;99.90;;;;;;5055738;28;20029;-49
2021/06/02 05:30:29;;;;;;;8.63;5.32;;;15.30;99.90;;;;;;5055636;28;20485;-47
2021/06/02 05:33:13;;;;;;;7.13;4.22;;;16.90;96.40;;;;;;5054471;28;20025;-46
2021/06/02 05:35:49;;;;;;;11.35;5.07;;;18.70;88.10;;;;;;5047376;28;20022;-46
2021/06/02 05:38:42;;;;;;;7.53;4.28;;;20.30;82.30;;;;;;5034382;28;20029;-47
2021/06/02 05:41:48;;;;;;;6.15;4.10;;;21.30;76.40;;;;;;5035276;28;20120;-47
2021/06/02 05:44:54;;;;;;;4.00;3.47;;;22.40;70.30;;;;;;5035350;28;20484;-46
2021/06/02 05:47:58;;;;;;;5.28;4.40;;;23.70;67.10;;;;;;5035141;28;20058;-49
2021/06/02 05:50:49;;;;;;;8.73;4.85;;;25.00;61.80;;;;;;5034164;28;20523;-47
2021/06/02 05:53:47;;;;;;;8.80;5.22;;;25.30;59.50;;;;;;5034810;28;20033;-48
2021/06/02 05:57:00;;;;;;;6.55;4.72;;;25.70;59.60;;;;;;5035008;28;20021;-48
2021/06/02 06:00:07;;;;;;;10.15;4.75;;;26.40;57.80;;;;;;5034573;28;20508;-50
2021/06/02 06:02:58;;;;;;;4.95;3.05;;;26.90;53.90;;;;;;5033677;28;20464;-45
2021/06/02 06:05:50;;;;;;;7.10;4.22;;;27.50;56.50;;;;;;5034350;28;20022;-47
2021/06/02 06:08:51;;;;;;;6.53;3.80;;;28.20;51.40;;;;;;5034727;28;20112;-46
2021/06/02 06:11:38;;;;;;;6.53;4.43;;;28.00;53.20;;;;;;5035009;28;20030;-47
2021/06/02 06:14:20;;;;;;;5.28;3.65;;;27.80;52.50;;;;;;5034973;28;20021;-46
2021/06/02 06:17:11;;;;;;;4.82;3.92;;;27.80;53.90;;;;;;5034902;28;20287;-48
2021/06/02 06:19:57;;;;;;;5.13;3.45;;;28.40;50.60;;;;;;5034049;28;20037;-47
2021/06/02 06:22:43;;;;;;;;;;;28.60;53.90;;;;;;5034917;28;20056;-47
2021/06/02 06:25:22;;;;;;;6.00;3.42;;;28.90;49.40;;;;;;5034703;28;19992;-47
2021/06/02 06:27:55;;;;;;;6.22;3.65;;;28.00;51.70;;;;;;5034583;28;20030;-48
2021/06/02 06:30:25;;;;;;;4.82;3.80;;;27.90;52.70;;;;;;5034871;28;20491;-47
2021/06/02 06:32:53;;;;;;;4.88;3.67;;;28.00;52.80;;;;;;5034162;28;20536;-46
2021/06/02 06:35:21;;;;;;;4.82;3.80;;;28.20;52.20;;;;;;5033724;28;20030;-47
2021/06/02 06:37:49;;;;;;;5.25;3.47;;;28.90;51.10;;;;;;5034444;28;20035;-48
2021/06/02 06:40:19;;;;;;;4.10;3.42;;;28.80;51.50;;;;;;5034531;28;20376;-47
2021/06/02 06:42:50;;;;;;;5.90;3.63;;;29.20;51.20;;;;;;5034343;28;20109;-46
2021/06/02 06:45:24;;;;;;;6.45;3.85;;;29.50;50.20;;;;;;5034300;28;20021;-48
2021/06/02 06:47:52;;;;;;;7.68;4.03;;;29.80;49.10;;;;;;5034350;28;20764;-45
2021/06/02 06:50:19;;;;;;;3.72;3.33;;;30.20;49.20;;;;;;5033569;28;20026;-46
2021/06/02 06:52:49;;;;;;;5.75;3.80;;;30.10;47.70;;;;;;5034180;28;20044;-48
2021/06/02 06:55:15;;;;;;;4.57;3.70;;;29.90;48.30;;;;;;5033827;28;20029;-50
2021/06/02 06:57:42;;;;;;;5.53;3.75;;;30.20;48.00;;;;;;5034030;28;20040;-47
2021/06/02 07:00:10;;;;;;;6.47;3.38;;;30.90;48.30;;;;;;5033085;28;20508;-49
2021/06/02 07:02:42;;;;;;;4.90;4.03;;;31.00;47.40;;;;;;5033921;28;20032;-48
2021/06/02 07:05:09;;;;;;;5.07;3.55;;;31.00;45.70;;;;;;5033279;28;20026;-46
2021/06/02 07:07:36;;;;;;;4.82;3.63;;;31.20;46.90;;;;;;5033949;28;20057;-49
2021/06/02 07:10:04;;;;;;;5.82;4.68;;;31.60;46.50;;;;;;5033491;28;20021;-45
2021/06/02 07:12:31;;;;;;;5.38;4.57;;;31.30;45.10;;;;;;5033931;28;20017;-50
2021/06/02 07:14:58;;;;;;;3.60;3.30;;;31.30;45.30;;;;;;5033785;28;20028;-50
2021/06/02 07:17:24;;;;;;;4.60;3.67;;;30.90;46.60;;;;;;5033842;28;20473;-46
2021/06/02 07:19:57;;;;;;;4.85;4.03;;;31.60;46.30;;;;;;5032367;28;20032;-50
2021/06/02 07:22:24;;;;;;;4.75;3.78;;;31.70;45.10;;;;;;5033507;28;20025;-46
2021/06/02 07:25:02;;;;;;;4.38;3.30;;;31.20;45.20;;;;;;5033515;28;20053;-49
2021/06/02 07:27:30;;;;;;;11.43;5.57;;;31.40;45.00;;;;;;5033656;28;20018;-50
2021/06/02 07:29:56;;;;;;;4.95;3.92;;;31.60;45.00;;;;;;5033719;28;20372;-49
2021/06/02 07:32:21;;;;;;;4.82;4.00;;;31.70;44.70;;;;;;5033489;28;20043;-53
2021/06/02 07:34:47;;;;;;;4.05;3.65;;;32.20;44.00;;;;;;5032558;28;20029;-52
2021/06/02 07:37:13;;;;;;;7.00;3.92;;;32.80;44.10;;;;;;5033362;28;20029;-49
2021/06/02 07:39:38;;;;;;;6.57;4.45;;;32.60;44.00;;;;;;5033178;28;20362;-51
2021/06/02 07:42:04;;;;;;;7.88;4.13;;;32.40;43.80;;;;;;5033128;28;20044;-51
2021/06/02 07:44:30;;;;;;;5.85;3.53;;;32.50;43.20;;;;;;5033120;28;20025;-48
2021/06/02 07:46:56;;;;;;;4.55;3.50;;;32.60;43.20;;;;;;5033352;28;20028;-51
2021/06/02 07:49:21;;;;;;;8.73;4.25;;;33.30;43.10;;;;;;5032444;28;20029;-55
2021/06/02 07:51:53;;;;;;;4.35;3.10;;;33.60;41.90;;;;;;5033144;28;20056;-50
2021/06/02 07:54:21;;;;;;;6.72;3.85;;;33.80;41.70;;;;;;5032636;28;20432;-48
2021/06/02 07:56:47;;;;;;;4.82;3.80;;;34.20;41.70;;;;;;5032758;28;20490;-48
2021/06/02 07:59:13;;;;;;;5.47;4.53;;;34.50;41.20;;;;;;5033003;28;20116;-51
2021/06/02 08:01:39;;;;;;;6.05;3.78;;;34.00;41.30;;;;;;5032951;28;20456;-50
2021/06/02 08:04:04;;;;;;;7.25;4.15;;;34.40;41.10;;;;;;5030864;28;20030;-49
2021/06/02 08:06:30;;;;;;;7.57;3.78;;;34.30;41.00;;;;;;5032988;28;20029;-52
2021/06/02 08:08:55;;;;;;;5.75;4.53;;;34.60;40.80;;;;;;5032659;28;20109;-50
2021/06/02 08:11:21;;;;;;;5.60;3.78;;;34.90;40.10;;;;;;5033009;28;20108;-52
2021/06/02 08:13:46;;;;;;;5.95;4.80;;;34.90;40.00;;;;;;5032689;28;20027;-50
2021/06/02 08:16:12;;;;;;;6.82;4.35;;;34.10;40.30;;;;;;5032885;28;20018;-47
2021/06/02 08:18:37;;;;;;;3.78;3.35;;;34.00;40.80;;;;;;5031776;28;20021;-50
2021/06/02 08:21:03;;;;;;;4.88;3.85;;;34.60;40.90;;;;;;5031666;28;20442;-53
2021/06/02 08:23:28;;;;;;;6.18;4.32;;;34.70;40.20;;;;;;5031976;28;20013;-51
2021/06/02 08:25:54;;;;;;;4.75;4.15;;;34.70;40.00;;;;;;5032641;28;20033;-48
2021/06/02 08:28:20;;;;;;;7.03;4.25;;;34.90;40.10;;;;;;5032517;28;20009;-49
2021/06/02 08:30:46;;;;;;;5.70;4.00;;;34.20;40.40;;;;;;5032087;28;20104;-49
2021/06/02 08:33:11;;;;;;;6.28;3.97;;;34.30;40.60;;;;;;5032081;28;20033;-48
2021/06/02 08:35:37;;;;;;;4.85;4.13;;;34.20;40.40;;;;;;5031485;28;20032;-51
2021/06/02 08:38:03;;;;;;;4.18;3.78;;;34.00;40.70;;;;;;5032014;28;20127;-54
2021/06/02 08:40:28;;;;;;;4.55;4.15;;;34.20;40.80;;;;;;5032026;28;20148;-51
2021/06/02 08:42:54;;;;;;;5.68;3.50;;;34.70;40.40;;;;;;5032044;28;20128;-49
2021/06/02 08:45:20;;;;;;;5.55;4.30;;;35.30;40.10;;;;;;5032475;28;20025;-52
2021/06/02 08:47:48;;;;;;;5.20;4.20;;;35.00;39.40;;;;;;5032278;28;20029;-50
2021/06/02 08:50:17;;;;;;;5.57;4.20;;;34.20;40.20;;;;;;5031656;28;20036;-49
2021/06/02 08:52:43;;;;;;;4.68;4.28;;;33.90;40.50;;;;;;5032072;28;20396;-46
2021/06/02 08:55:15;;;;;;;4.43;3.90;;;33.40;40.60;;;;;;5030779;28;20030;-51
2021/06/02 08:57:44;;;;;;;4.13;3.70;;;33.20;40.90;;;;;;5032214;28;20072;-47
2021/06/02 09:00:12;;;;;;;6.40;4.57;;;33.20;41.00;;;;;;5032308;28;20495;-50
2021/06/02 09:02:39;;;;;;;4.07;3.60;;;33.50;40.30;;;;;;5032199;28;20060;-52
2021/06/02 09:05:06;;;;;;;4.13;3.72;;;33.00;40.90;;;;;;5030974;28;20109;-48
2021/06/02 09:07:33;;;;;;;5.32;4.05;;;33.70;40.70;;;;;;5032331;28;20053;-48
2021/06/02 09:10:02;;;;;;;3.63;3.28;;;32.70;40.90;;;;;;5032156;28;20560;-49
2021/06/02 09:12:37;;;;;;;4.07;3.42;;;32.50;41.00;;;;;;5032097;28;20079;-48
2021/06/02 09:15:20;;;;;;;5.70;3.50;;;31.80;41.60;;;;;;5031829;28;20080;-50
2021/06/02 09:17:58;;;;;;;4.50;3.70;;;31.80;41.70;;;;;;5031988;28;20025;-49
2021/06/02 09:20:43;;;;;;;4.65;3.72;;;32.10;41.20;;;;;;5031373;28;20045;-52
2021/06/02 09:23:27;;;;;;;;;;;32.50;41.10;;;;;;5032352;28;20036;-49
2021/06/02 09:26:18;;;;;;;6.43;4.03;;;32.50;40.70;;;;;;5031650;28;19944;-49
2021/06/02 09:29:03;;;;;;;6.45;4.65;;;32.00;41.80;;;;;;5028999;28;20072;-49
2021/06/02 09:31:34;;;;;;;5.05;4.20;;;32.00;41.80;;;;;;5032130;28;20029;-51
2021/06/02 09:34:14;;;;;;;7.63;4.18;;;32.20;41.70;;;;;;5030918;28;20033;-53
2021/06/02 09:36:41;;;;;;;6.13;4.15;;;32.30;41.60;;;;;;5031994;28;20022;-49
2021/06/02 09:39:09;;;;;;;7.10;4.57;;;32.10;41.70;;;;;;5031846;28;20027;-50
2021/06/02 09:41:42;;;;;;;6.15;5.22;;;31.30;42.50;;;;;;5031957;28;20038;-51
2021/06/02 09:44:13;;;;;;;7.20;4.45;;;30.80;43.40;;;;;;5034591;28;20018;-50
2021/06/02 09:47:04;;;;;;;5.25;3.72;;;30.40;43.90;;;;;;5035137;28;20025;-47
2021/06/02 09:49:51;;;;;;;5.03;4.13;;;30.80;43.70;;;;;;5034509;28;20022;-48
2021/06/02 09:52:18;;;;;;;5.07;3.85;;;30.70;43.60;;;;;;5035597;28;20029;-47
2021/06/02 09:54:45;;;;;;;8.40;4.88;;;30.20;43.80;;;;;;5035409;28;20108;-49
2021/06/02 09:57:18;;;;;;;7.45;4.07;;;29.60;44.80;;;;;;5035131;28;20087;-49
2021/06/02 09:59:57;;;;;;;7.93;5.00;;;28.60;46.10;;;;;;5034979;28;20048;-47
2021/06/02 10:02:23;;;;;;;7.32;5.22;;;27.70;48.20;;;;;;5035300;28;20025;-53
2021/06/02 10:05:10;;;;;;;6.88;5.30;;;26.60;49.50;;;;;;5034237;28;20021;-49
2021/06/02 10:07:44;;;;;;;7.50;4.43;;;25.90;51.10;;;;;;5035070;28;20083;-50
2021/06/02 10:10:14;;;;;;;5.50;4.22;;;25.40;52.20;;;;;;5034963;28;20017;-48
2021/06/02 10:13:00;;;;;;;6.40;4.00;;;25.10;52.00;;;;;;5035209;28;20380;-53
2021/06/02 10:15:47;;;;;;;4.88;3.80;;;24.90;52.60;;;;;;5029587;28;20037;-51
2021/06/02 10:18:30;;;;;;;8.50;4.65;;;24.60;53.50;;;;;;5034816;28;20149;-47
2021/06/02 10:21:40;;;;;;;5.78;4.25;;;24.40;54.50;;;;;;5034551;28;20156;-47
2021/06/02 10:24:07;;;;;;;6.10;4.25;;;24.30;54.80;;;;;;5034259;28;20059;-48
2021/06/02 10:26:32;;;;;;;5.80;4.13;;;24.10;54.90;;;;;;5034579;28;20068;-49
2021/06/02 10:28:58;;;;;;;9.68;5.00;;;24.10;55.00;;;;;;5034530;28;20409;-47
2021/06/02 10:31:24;;;;;;;6.30;4.60;;;24.10;55.70;;;;;;5034814;28;20026;-49
2021/06/02 10:33:49;;;;;;;8.68;4.57;;;24.10;55.30;;;;;;5032262;28;20084;-51
2021/06/02 10:36:15;;;;;;;7.05;4.30;;;23.90;55.60;;;;;;5034358;28;20029;-50
2021/06/02 10:38:53;;;;;;;5.50;4.63;;;23.80;55.80;;;;;;5034561;28;20060;-47
2021/06/02 10:41:25;;;;;;;5.22;4.32;;;23.90;56.00;;;;;;5034453;28;20037;-48
2021/06/02 10:43:54;;;;;;;5.25;3.55;;;23.90;56.30;;;;;;5034336;28;20017;-49
2021/06/02 10:46:26;;;;;;;6.43;5.07;;;23.80;55.70;;;;;;5034401;28;20021;-51
2021/06/02 10:48:56;;;;;;;6.10;4.00;;;23.90;55.60;;;;;;5033380;28;20026;-49
2021/06/02 10:51:31;;;;;;;9.35;4.07;;;23.90;55.30;;;;;;5034149;28;20021;-48
2021/06/02 10:54:03;;;;;;;5.53;4.13;;;24.20;55.50;;;;;;5033534;28;20030;-48
2021/06/02 10:56:30;;;;;;;4.55;3.97;;;24.20;54.90;;;;;;5034020;28;20017;-49
2021/06/02 10:58:56;;;;;;;4.47;3.50;;;24.10;54.90;;;;;;5033852;28;20377;-49
2021/06/02 11:01:22;;;;;;;6.13;3.72;;;24.30;54.60;;;;;;5034421;28;20028;-47
2021/06/02 11:04:10;;;;;;;4.47;3.30;;;24.20;54.20;;;;;;5028605;28;20914;-53
2021/06/02 11:06:41;;;;;;;8.25;4.15;;;24.10;55.10;;;;;;5034079;28;20025;-49
2021/06/02 11:09:08;;;;;;;7.82;4.35;;;24.20;54.30;;;;;;5030609;28;20025;-53
2021/06/02 11:11:43;;;;;;;6.72;4.03;;;24.20;54.60;;;;;;5033855;28;20299;-51
2021/06/02 11:14:19;;;;;;;6.47;3.53;;;24.10;54.20;;;;;;5033679;28;20025;-48
2021/06/02 11:17:07;;;;;;;7.68;3.65;;;23.90;54.50;;;;;;5033573;28;20026;-51
2021/06/02 11:19:49;;;;;;;4.90;3.53;;;24.00;54.50;;;;;;5032738;28;20036;-47
2021/06/02 11:22:24;;;;;;;6.70;4.22;;;24.20;54.00;;;;;;5033493;28;20060;-47
2021/06/02 11:24:50;;;;;;;4.38;3.35;;;24.50;53.30;;;;;;5013356;28;20018;-48
2021/06/02 11:27:22;;;;;;;3.72;3.30;;;24.40;52.30;;;;;;5013589;28;20022;-49
2021/06/02 11:29:50;;;;;;;3.60;3.13;;;24.40;52.30;;;;;;5013642;28;20377;-48
2021/06/02 11:32:26;;;;;;;8.02;3.28;;;24.40;51.80;;;;;;5013411;28;20034;-47
2021/06/02 11:34:53;;;;;;;7.10;2.88;;;24.40;51.30;;;;;;5012786;28;20105;-47
2021/06/02 11:37:24;;;;;;;5.13;2.80;;;24.50;51.60;;;;;;5033043;28;20030;-50
2021/06/02 11:39:53;;;;;;;2.78;2.35;;;24.60;51.60;;;;;;5033383;28;20532;-50
2021/06/02 11:42:39;;;;;;;2.85;2.60;;;24.80;51.40;;;;;;5033315;28;20477;-49
2021/06/02 11:45:06;;;;;;;3.90;2.83;;;24.90;50.90;;;;;;5033152;28;20033;-47
2021/06/02 11:47:35;;;;;;;2.75;2.50;;;25.00;50.90;;;;;;5033347;28;20354;-47
2021/06/02 11:50:14;;;;;;;5.65;3.00;;;25.30;50.80;;;;;;5031920;28;20033;-48
2021/06/02 11:52:40;;;;;;;3.22;2.92;;;25.50;50.60;;;;;;5033275;28;20021;-49
2021/06/02 11:55:09;;;;;;;3.13;2.72;;;25.50;49.00;;;;;;5032992;28;20155;-49
2021/06/02 11:57:52;;;;;;;3.78;2.70;;;25.40;48.30;;;;;;5033215;28;20041;-48
2021/06/02 12:00:22;;;;;;;3.15;2.70;;;25.10;47.90;;;;;;5032593;28;20037;-47
2021/06/02 12:02:53;;;;;;;4.20;2.88;;;25.00;48.90;;;;;;5032803;28;20037;-47
2021/06/02 12:05:26;;;;;;;3.00;2.70;;;24.80;48.90;;;;;;5031763;28;20034;-47
2021/06/02 12:07:59;;;;;;;4.22;2.95;;;24.60;49.20;;;;;;5033024;28;20061;-50
2021/06/02 12:10:34;;;;;;;3.35;2.70;;;24.50;49.40;;;;;;5032784;28;20068;-50
2021/06/02 12:13:01;;;;;;;3.45;2.70;;;24.40;48.80;;;;;;5031424;28;20033;-47
2021/06/02 12:15:38;;;;;;;2.42;2.20;;;24.30;48.70;;;;;;5032759;28;20036;-45
2021/06/02 12:18:05;;;;;;;2.97;2.60;;;24.20;49.00;;;;;;5029856;28;20030;-46
2021/06/02 12:20:32;;;;;;;3.13;2.67;;;24.30;49.20;;;;;;5031783;28;20057;-49
2021/06/02 12:22:58;;;;;;;3.67;3.30;;;24.30;49.00;;;;;;5037970;28;20025;-45
2021/06/02 12:25:25;;;;;;;3.55;3.08;;;24.30;49.40;;;;;;5052265;28;20549;-46
2021/06/02 12:27:53;;;;;;;4.38;2.97;;;24.40;49.80;;;;;;5052786;28;20033;-47
2021/06/02 12:30:20;;;;;;;3.72;2.80;;;24.40;50.00;;;;;;5052142;28;20064;-50
2021/06/02 12:32:57;;;;;;;4.00;2.70;;;24.50;50.50;;;;;;5052441;28;20361;-51
2021/06/02 12:35:33;;;;;;;5.78;3.28;;;24.50;50.80;;;;;;5046708;28;20123;-45
2021/06/02 12:38:13;;;;;;;4.63;3.28;;;24.60;50.60;;;;;;5032107;28;20033;-49
2021/06/02 12:40:47;;;;;;;4.30;3.03;;;24.40;50.90;;;;;;5032405;28;20041;-47
2021/06/02 12:43:17;;;;;;;3.30;3.00;;;24.20;50.70;;;;;;5032540;28;20061;-47
2021/06/02 12:45:44;;;;;;;3.58;3.00;;;24.10;51.10;;;;;;5032316;28;20505;-48
2021/06/02 12:48:12;;;;;;;3.47;2.78;;;24.00;50.50;;;;;;5031842;28;20021;-48
2021/06/02 12:50:40;;;;;;;3.78;3.25;;;23.90;50.70;;;;;;5031534;28;20023;-47
2021/06/02 12:53:07;;;;;;;4.90;3.15;;;23.80;50.50;;;;;;5032497;28;20096;-46
2021/06/02 12:55:35;;;;;;;5.18;3.00;;;23.70;50.50;;;;;;5032336;28;20025;-45
2021/06/02 12:58:04;;;;;;;4.40;2.40;;;23.70;50.80;;;;;;5032166;28;20029;-48
2021/06/02 13:00:30;;;;;;;3.40;2.50;;;23.70;50.90;;;;;;5032251;28;20068;-50
2021/06/02 13:02:56;;;;;;;4.22;2.67;;;23.70;50.60;;;;;;5032121;28;20037;-52
2021/06/02 13:05:22;;;;;;;6.60;2.85;;;23.70;50.70;;;;;;5031111;28;20021;-47
2021/06/02 13:07:48;;;;;;;3.05;2.45;;;23.80;50.70;;;;;;5032390;28;20022;-48
2021/06/02 13:10:14;;;;;;;3.63;2.70;;;23.90;50.90;;;;;;5032061;28;20061;-48
2021/06/02 13:12:53;;;;;;;4.35;2.70;;;23.90;51.00;;;;;;5032327;28;20056;-47
2021/06/02 13:15:31;;;;;;;4.13;2.72;;;24.00;50.20;;;;;;5031936;28;20046;-48
2021/06/02 13:17:58;;;;;;;3.20;2.30;;;24.10;49.60;;;;;;5033094;28;20068;-47
2021/06/02 13:20:35;;;;;;;3.63;2.55;;;24.30;49.40;;;;;;5035051;28;20040;-47
2021/06/02 13:23:15;;;;;;;3.22;2.83;;;24.40;49.50;;;;;;5041853;28;20025;-47
2021/06/02 13:25:46;;;;;;;4.88;2.50;;;24.60;49.30;;;;;;5055747;28;20017;-46
2021/06/02 13:28:13;;;;;;;3.45;2.65;;;24.70;49.30;;;;;;5055476;28;20059;-49
2021/06/02 13:30:48;;;;;;;4.80;2.95;;;24.80;48.60;;;;;;5055745;28;20064;-49
2021/06/02 13:33:14;;;;;;;3.38;3.08;;;25.10;48.70;;;;;;5055505;28;20071;-47